createdAt,value
2023-03-05T00:00:28.283Z,15.90
2023-03-05T00:01:28.260Z,15.90
2023-03-05T00:02:28.307Z,15.90
2023-03-05T00:03:28.254Z,15.90
2023-03-05T00:04:28.249Z,15.89
2023-03-05T00:05:28.218Z,15.90
2023-03-05T00:06:28.203Z,15.90
2023-03-05T00:07:28.227Z,15.89
2023-03-05T00:08:28.205Z,15.90
2023-03-05T00:09:28.170Z,15.90
2023-03-05T00:10:28.166Z,15.89
2023-03-05T00:11:28.148Z,15.89
2023-03-05T00:12:28.146Z,15.89
2023-03-05T00:13:28.148Z,15.89
2023-03-05T00:14:28.122Z,15.89
2023-03-05T00:15:28.128Z,15.90
2023-03-05T00:16:28.111Z,15.90
2023-03-05T00:17:28.083Z,15.89
2023-03-05T00:18:28.106Z,15.89
2023-03-05T00:19:28.068Z,15.89
2023-03-05T00:20:28.053Z,15.89
2023-03-05T00:21:28.044Z,15.89
2023-03-05T00:22:28.051Z,15.89
2023-03-05T00:23:28.022Z,15.89
2023-03-05T00:24:28.010Z,15.89
2023-03-05T00:25:28.002Z,15.89
2023-03-05T00:26:27.991Z,15.89
2023-03-05T00:27:27.999Z,15.89
2023-03-05T00:28:27.965Z,15.87
2023-03-05T00:29:30.111Z,15.89
2023-03-05T00:30:27.945Z,15.89
2023-03-05T00:31:28.047Z,15.90
2023-03-05T00:32:28.093Z,15.89
2023-03-05T00:33:27.945Z,15.89
2023-03-05T00:34:27.904Z,15.89
2023-03-05T00:35:27.911Z,15.89
2023-03-05T00:36:27.894Z,15.89
2023-03-05T00:37:27.884Z,15.89
2023-03-05T00:38:27.901Z,15.89
2023-03-05T00:39:27.860Z,15.89
2023-03-05T00:40:27.911Z,15.89
2023-03-05T00:41:27.830Z,15.89
2023-03-05T00:42:27.841Z,15.89
2023-03-05T00:43:27.809Z,15.90
2023-03-05T00:44:27.819Z,15.89
2023-03-05T00:45:27.789Z,15.89
2023-03-05T00:46:27.904Z,15.89
2023-03-05T00:47:27.793Z,15.87
2023-03-05T00:48:27.765Z,15.89
2023-03-05T00:49:27.766Z,15.89
2023-03-05T00:50:27.752Z,15.89
2023-03-05T00:51:27.741Z,15.87
2023-03-05T00:52:27.720Z,15.90
2023-03-05T00:53:27.701Z,15.89
2023-03-05T00:54:27.712Z,15.89
2023-03-05T00:55:27.681Z,15.87
2023-03-05T00:56:27.710Z,15.89
2023-03-05T00:57:27.658Z,15.87
2023-03-05T00:58:27.677Z,15.87
2023-03-05T00:59:27.637Z,15.87
2023-03-05T01:00:27.655Z,15.87
2023-03-05T01:01:27.640Z,15.89
2023-03-05T01:02:27.603Z,15.87
2023-03-05T01:03:27.638Z,15.87
2023-03-05T01:04:27.578Z,15.87
2023-03-05T01:05:27.605Z,15.87
2023-03-05T01:06:27.554Z,15.89
2023-03-05T01:07:27.565Z,15.89
2023-03-05T01:08:27.527Z,15.89
2023-03-05T01:09:27.515Z,15.87
2023-03-05T01:10:27.504Z,15.89
2023-03-05T01:11:27.499Z,15.87
2023-03-05T01:12:27.587Z,15.87
2023-03-05T01:13:27.474Z,15.87
2023-03-05T01:14:27.458Z,15.89
2023-03-05T01:15:27.449Z,15.87
2023-03-05T01:16:27.512Z,15.87
2023-03-05T01:17:27.425Z,15.87
2023-03-05T01:18:27.410Z,15.87
2023-03-05T01:19:27.431Z,15.87
2023-03-05T01:20:27.387Z,15.87
2023-03-05T01:21:27.396Z,15.87
2023-03-05T01:22:27.369Z,15.87
2023-03-05T01:23:27.356Z,15.87
2023-03-05T01:24:27.354Z,15.87
2023-03-05T01:25:27.336Z,15.87
2023-03-05T01:26:27.345Z,15.86
2023-03-05T01:27:27.319Z,15.87
2023-03-05T01:28:27.299Z,15.87
2023-03-05T01:29:27.303Z,15.87
2023-03-05T01:30:27.276Z,15.87
2023-03-05T01:31:27.319Z,15.89
2023-03-05T01:32:27.362Z,15.86
2023-03-05T01:33:27.242Z,15.87
2023-03-05T01:34:27.253Z,15.87
2023-03-05T01:35:27.276Z,15.86
2023-03-05T01:36:27.228Z,15.87
2023-03-05T01:37:27.205Z,15.86
2023-03-05T01:38:27.246Z,15.86
2023-03-05T01:39:27.181Z,15.87
2023-03-05T01:40:27.171Z,15.86
2023-03-05T01:41:27.191Z,15.87
2023-03-05T01:42:27.149Z,15.86
2023-03-05T01:43:27.141Z,15.86
2023-03-05T01:44:27.131Z,15.86
2023-03-05T01:45:27.165Z,15.86
2023-03-05T01:46:27.150Z,15.87
2023-03-05T01:47:27.098Z,15.86
2023-03-05T01:48:27.090Z,15.86
2023-03-05T01:49:27.071Z,15.86
2023-03-05T01:50:27.068Z,15.87
2023-03-05T01:51:27.102Z,15.87
2023-03-05T01:52:27.044Z,15.87
2023-03-05T01:53:27.033Z,15.84
2023-03-05T01:54:27.018Z,15.84
2023-03-05T01:55:27.011Z,15.86
2023-03-05T01:56:27.000Z,15.87
2023-03-05T01:57:27.022Z,15.87
2023-03-05T01:58:26.978Z,15.86
2023-03-05T01:59:26.970Z,15.87
2023-03-05T02:00:26.955Z,15.87
2023-03-05T02:01:27.013Z,15.87
2023-03-05T02:02:26.978Z,15.86
2023-03-05T02:03:26.975Z,15.87
2023-03-05T02:04:26.915Z,15.86
2023-03-05T02:05:26.955Z,15.86
2023-03-05T02:06:26.888Z,15.84
2023-03-05T02:07:26.927Z,15.84
2023-03-05T02:08:26.869Z,15.86
2023-03-05T02:09:26.861Z,15.87
2023-03-05T02:10:26.849Z,15.86
2023-03-05T02:11:26.841Z,15.86
2023-03-05T02:12:26.851Z,15.86
2023-03-05T02:13:26.836Z,15.84
2023-03-05T02:14:26.810Z,15.86
2023-03-05T02:15:26.795Z,15.86
2023-03-05T02:16:26.890Z,15.86
2023-03-05T02:17:26.776Z,15.86
2023-03-05T02:18:26.785Z,15.86
2023-03-05T02:19:26.759Z,15.86
2023-03-05T02:20:26.758Z,15.86
2023-03-05T02:21:26.734Z,15.86
2023-03-05T02:22:26.747Z,15.86
2023-03-05T02:23:26.761Z,15.84
2023-03-05T02:24:26.720Z,15.84
2023-03-05T02:25:26.708Z,15.86
2023-03-05T02:26:26.680Z,15.84
2023-03-05T02:27:26.672Z,15.84
2023-03-05T02:28:26.659Z,15.86
2023-03-05T02:29:26.670Z,15.84
2023-03-05T02:30:26.638Z,15.84
2023-03-05T02:31:26.671Z,15.83
2023-03-05T02:32:26.656Z,15.86
2023-03-05T02:33:26.603Z,15.84
2023-03-05T02:34:26.626Z,15.86
2023-03-05T02:35:26.625Z,15.86
2023-03-05T02:36:26.573Z,15.84
2023-03-05T02:37:26.562Z,15.84
2023-03-05T02:38:26.558Z,15.84
2023-03-05T02:39:26.563Z,15.83
2023-03-05T02:40:26.564Z,15.84
2023-03-05T02:41:26.524Z,15.84
2023-03-05T02:42:26.514Z,15.84
2023-03-05T02:43:26.500Z,15.84
2023-03-05T02:44:26.494Z,15.83
2023-03-05T02:45:26.500Z,15.84
2023-03-05T02:46:26.537Z,15.86
2023-03-05T02:47:26.456Z,15.83
2023-03-05T02:48:26.482Z,15.86
2023-03-05T02:49:26.434Z,15.86
2023-03-05T02:50:26.451Z,15.84
2023-03-05T02:51:26.422Z,15.84
2023-03-05T02:52:26.405Z,15.83
2023-03-05T02:53:26.406Z,15.84
2023-03-05T02:54:26.414Z,15.84
2023-03-05T02:55:26.397Z,15.84
2023-03-05T02:56:26.362Z,15.84
2023-03-05T02:57:26.352Z,15.83
2023-03-05T02:58:26.344Z,15.83
2023-03-05T02:59:26.334Z,15.84
2023-03-05T03:00:26.339Z,15.84
2023-03-05T03:01:26.347Z,15.83
2023-03-05T03:02:26.316Z,15.83
2023-03-05T03:03:26.370Z,15.84
2023-03-05T03:04:26.294Z,15.86
2023-03-05T03:05:26.270Z,15.83
2023-03-05T03:06:26.266Z,15.83
2023-03-05T03:07:26.255Z,15.86
2023-03-05T03:08:26.254Z,15.84
2023-03-05T03:09:26.223Z,15.83
2023-03-05T03:10:26.215Z,15.84
2023-03-05T03:11:26.268Z,15.84
2023-03-05T03:12:26.192Z,15.84
2023-03-05T03:13:26.184Z,15.83
2023-03-05T03:14:26.175Z,15.84
2023-03-05T03:15:26.159Z,15.83
2023-03-05T03:16:26.228Z,15.84
2023-03-05T03:17:26.160Z,15.83
2023-03-05T03:18:26.127Z,15.83
2023-03-05T03:19:26.123Z,15.84
2023-03-05T03:20:26.116Z,15.83
2023-03-05T03:21:26.119Z,15.84
2023-03-05T03:22:26.093Z,15.84
2023-03-05T03:23:26.077Z,15.83
2023-03-05T03:24:26.068Z,15.83
2023-03-05T03:25:26.054Z,15.83
2023-03-05T03:26:26.068Z,15.84
2023-03-05T03:27:26.060Z,15.84
2023-03-05T03:28:26.023Z,15.83
2023-03-05T03:29:26.015Z,15.84
2023-03-05T03:30:26.003Z,15.84
2023-03-05T03:31:26.012Z,15.83
2023-03-05T03:32:26.021Z,15.84
2023-03-05T03:33:25.982Z,15.84
2023-03-05T03:34:25.965Z,15.83
2023-03-05T03:35:25.969Z,15.84
2023-03-05T03:36:25.965Z,15.83
2023-03-05T03:37:25.928Z,15.82
2023-03-05T03:38:25.919Z,15.83
2023-03-05T03:39:25.912Z,15.83
2023-03-05T03:40:25.897Z,15.82
2023-03-05T03:41:25.909Z,15.84
2023-03-05T03:42:25.881Z,15.83
2023-03-05T03:43:25.887Z,15.83
2023-03-05T03:44:25.881Z,15.83
2023-03-05T03:45:25.845Z,15.82
2023-03-05T03:46:25.912Z,15.83
2023-03-05T03:47:25.825Z,15.83
2023-03-05T03:48:25.809Z,15.83
2023-03-05T03:49:25.804Z,15.83
2023-03-05T03:50:25.789Z,15.82
2023-03-05T03:51:25.808Z,15.83
2023-03-05T03:52:25.781Z,15.83
2023-03-05T03:53:25.759Z,15.83
2023-03-05T03:54:25.749Z,15.82
2023-03-05T03:55:25.734Z,15.83
2023-03-05T03:56:25.731Z,15.83
2023-03-05T03:57:25.738Z,15.83
2023-03-05T03:58:25.709Z,15.82
2023-03-05T03:59:25.717Z,15.83
2023-03-05T04:00:25.684Z,15.82
2023-03-05T04:01:25.672Z,15.83
2023-03-05T04:02:25.724Z,15.82
2023-03-05T04:03:25.671Z,15.83
2023-03-05T04:04:25.707Z,15.83
2023-03-05T04:05:25.630Z,15.82
2023-03-05T04:06:25.620Z,15.82
2023-03-05T04:07:25.622Z,15.83
2023-03-05T04:08:25.625Z,15.82
2023-03-05T04:09:25.592Z,15.83
2023-03-05T04:10:25.614Z,15.82
2023-03-05T04:11:25.567Z,15.83
2023-03-05T04:12:25.559Z,15.84
2023-03-05T04:13:25.551Z,15.82
2023-03-05T04:14:25.559Z,15.82
2023-03-05T04:15:25.546Z,15.82
2023-03-05T04:16:25.609Z,15.82
2023-03-05T04:17:25.547Z,15.83
2023-03-05T04:18:25.494Z,15.83
2023-03-05T04:19:25.504Z,15.83
2023-03-05T04:20:25.481Z,15.83
2023-03-05T04:21:25.510Z,15.82
2023-03-05T04:22:25.451Z,15.83
2023-03-05T04:23:25.460Z,15.82
2023-03-05T04:24:25.428Z,15.82
2023-03-05T04:25:25.419Z,15.83
2023-03-05T04:26:25.407Z,15.83
2023-03-05T04:27:25.408Z,15.83
2023-03-05T04:28:25.412Z,15.82
2023-03-05T04:29:25.372Z,15.82
2023-03-05T04:30:25.363Z,15.83
2023-03-05T04:31:25.446Z,15.82
2023-03-05T04:32:25.422Z,15.82
2023-03-05T04:33:25.328Z,15.83
2023-03-05T04:34:25.338Z,15.83
2023-03-05T04:35:25.369Z,15.82
2023-03-05T04:36:25.294Z,15.82
2023-03-05T04:37:25.284Z,15.83
2023-03-05T04:38:25.297Z,15.83
2023-03-05T04:39:25.286Z,15.83
2023-03-05T04:40:25.254Z,15.82
2023-03-05T04:41:25.252Z,15.83
2023-03-05T04:42:25.227Z,15.82
2023-03-05T04:43:25.217Z,15.82
2023-03-05T04:44:25.238Z,15.82
2023-03-05T04:45:25.224Z,15.80
2023-03-05T04:46:25.209Z,15.82
2023-03-05T04:47:25.207Z,15.83
2023-03-05T04:48:25.161Z,15.82
2023-03-05T04:49:25.160Z,15.83
2023-03-05T04:50:25.142Z,15.83
2023-03-05T04:51:25.154Z,15.82
2023-03-05T04:52:25.133Z,15.83
2023-03-05T04:53:25.112Z,15.82
2023-03-05T04:54:25.098Z,15.82
2023-03-05T04:55:25.101Z,15.82
2023-03-05T04:56:25.105Z,15.82
2023-03-05T04:57:25.064Z,15.82
2023-03-05T04:58:25.054Z,15.82
2023-03-05T04:59:25.088Z,15.82
2023-03-05T05:00:25.052Z,15.82
2023-03-05T05:01:25.092Z,15.82
2023-03-05T05:02:25.250Z,15.82
2023-03-05T05:03:25.029Z,15.82
2023-03-05T05:04:24.994Z,15.82
2023-03-05T05:05:25.005Z,15.82
2023-03-05T05:06:24.970Z,15.82
2023-03-05T05:07:24.959Z,15.80
2023-03-05T05:08:24.959Z,15.82
2023-03-05T05:09:24.939Z,15.80
2023-03-05T05:10:24.955Z,15.82
2023-03-05T05:11:24.916Z,15.80
2023-03-05T05:12:24.921Z,15.80
2023-03-05T05:13:24.916Z,15.82
2023-03-05T05:14:24.891Z,15.82
2023-03-05T05:15:24.880Z,15.82
2023-03-05T05:16:24.952Z,15.82
2023-03-05T05:17:24.884Z,15.82
2023-03-05T05:18:24.845Z,15.82
2023-03-05T05:19:24.933Z,15.80
2023-03-05T05:20:24.819Z,15.80
2023-03-05T05:21:24.870Z,15.80
2023-03-05T05:22:24.812Z,15.80
2023-03-05T05:23:24.789Z,15.80
2023-03-05T05:24:24.782Z,15.82
2023-03-05T05:25:24.770Z,15.80
2023-03-05T05:26:24.762Z,15.80
2023-03-05T05:27:24.771Z,15.80
2023-03-05T05:28:24.746Z,15.80
2023-03-05T05:29:24.756Z,15.80
2023-03-05T05:30:24.713Z,15.82
2023-03-05T05:31:24.781Z,15.80
2023-03-05T05:32:24.808Z,15.78
2023-03-05T05:33:24.682Z,15.82
2023-03-05T05:34:24.669Z,15.82
2023-03-05T05:35:24.722Z,15.82
2023-03-05T05:36:24.672Z,15.80
2023-03-05T05:37:24.658Z,15.82
2023-03-05T05:38:24.629Z,15.80
2023-03-05T05:39:24.620Z,15.80
2023-03-05T05:40:24.631Z,15.78
2023-03-05T05:41:24.600Z,15.80
2023-03-05T05:42:24.640Z,15.80
2023-03-05T05:43:24.577Z,15.80
2023-03-05T05:44:24.568Z,15.80
2023-03-05T05:45:24.697Z,15.80
2023-03-05T05:46:24.677Z,15.80
2023-03-05T05:47:24.539Z,15.80
2023-03-05T05:48:24.567Z,15.80
2023-03-05T05:49:24.518Z,15.80
2023-03-05T05:50:24.507Z,15.82
2023-03-05T05:51:24.518Z,15.80
2023-03-05T05:52:24.485Z,15.80
2023-03-05T05:53:24.498Z,15.80
2023-03-05T05:54:24.462Z,15.80
2023-03-05T05:55:24.455Z,15.80
2023-03-05T05:56:24.440Z,15.80
2023-03-05T05:57:24.454Z,15.80
2023-03-05T05:58:24.438Z,15.80
2023-03-05T05:59:24.410Z,15.80
2023-03-05T06:00:24.397Z,15.78
2023-03-05T06:01:24.405Z,15.82
2023-03-05T06:02:24.396Z,15.78
2023-03-05T06:03:24.417Z,15.78
2023-03-05T06:04:24.360Z,15.78
2023-03-05T06:05:24.344Z,15.78
2023-03-05T06:06:24.335Z,15.80
2023-03-05T06:07:24.375Z,15.80
2023-03-05T06:08:24.315Z,15.80
2023-03-05T06:09:24.302Z,15.78
2023-03-05T06:10:24.290Z,15.80
2023-03-05T06:11:24.294Z,15.80
2023-03-05T06:12:24.290Z,15.78
2023-03-05T06:13:24.262Z,15.80
2023-03-05T06:14:24.249Z,15.80
2023-03-05T06:15:24.258Z,15.78
2023-03-05T06:16:24.342Z,15.78
2023-03-05T06:17:30.438Z,15.80
2023-03-05T06:18:25.238Z,15.80
2023-03-05T06:19:24.212Z,15.82
2023-03-05T06:20:24.196Z,15.80
2023-03-05T06:21:24.193Z,15.82
2023-03-05T06:22:24.164Z,15.78
2023-03-05T06:23:24.208Z,15.80
2023-03-05T06:24:24.148Z,15.78
2023-03-05T06:25:24.130Z,15.80
2023-03-05T06:26:24.121Z,15.78
2023-03-05T06:27:24.120Z,15.78
2023-03-05T06:28:24.099Z,15.78
2023-03-05T06:29:24.107Z,15.80
2023-03-05T06:30:24.077Z,15.80
2023-03-05T06:31:24.078Z,15.78
2023-03-05T06:32:24.107Z,15.80
2023-03-05T06:33:24.044Z,15.80
2023-03-05T06:34:24.060Z,15.80
2023-03-05T06:35:24.059Z,15.78
2023-03-05T06:36:24.014Z,15.78
2023-03-05T06:37:24.011Z,15.78
2023-03-05T06:38:24.005Z,15.78
2023-03-05T06:39:24.033Z,15.78
2023-03-05T06:40:23.970Z,15.78
2023-03-05T06:41:23.969Z,15.78
2023-03-05T06:42:23.949Z,15.78
2023-03-05T06:43:23.936Z,15.78
2023-03-05T06:44:23.958Z,15.80
2023-03-05T06:45:23.916Z,15.78
2023-03-05T06:46:24.041Z,15.80
2023-03-05T06:47:23.900Z,15.78
2023-03-05T06:48:23.888Z,15.78
2023-03-05T06:49:23.892Z,15.78
2023-03-05T06:50:23.874Z,15.80
2023-03-05T06:51:23.852Z,15.78
2023-03-05T06:52:23.842Z,15.78
2023-03-05T06:53:23.830Z,15.78
2023-03-05T06:54:23.841Z,15.78
2023-03-05T06:55:23.831Z,15.78
2023-03-05T06:56:23.796Z,15.78
2023-03-05T06:57:23.787Z,15.78
2023-03-05T06:58:23.774Z,15.80
2023-03-05T06:59:23.798Z,15.78
2023-03-05T07:00:23.757Z,15.78
2023-03-05T07:01:23.889Z,15.78
2023-03-05T07:02:23.799Z,15.78
2023-03-05T07:03:23.725Z,15.78
2023-03-05T07:04:23.710Z,15.78
2023-03-05T07:05:23.721Z,15.78
2023-03-05T07:06:23.688Z,15.78
2023-03-05T07:07:23.680Z,15.80
2023-03-05T07:08:23.671Z,15.78
2023-03-05T07:09:23.659Z,15.80
2023-03-05T07:10:23.670Z,15.78
2023-03-05T07:11:23.669Z,15.76
2023-03-05T07:12:23.647Z,15.78
2023-03-05T07:13:23.618Z,15.78
2023-03-05T07:14:23.604Z,15.78
2023-03-05T07:15:23.593Z,15.78
2023-03-05T07:16:23.581Z,15.78
2023-03-05T07:17:23.572Z,15.78
2023-03-05T07:18:23.587Z,15.78
2023-03-05T07:19:23.549Z,15.78
2023-03-05T07:20:23.540Z,15.76
2023-03-05T07:21:23.536Z,15.76
2023-03-05T07:22:23.520Z,15.76
2023-03-05T07:23:23.529Z,15.78
2023-03-05T07:24:23.499Z,15.78
2023-03-05T07:25:23.502Z,15.78
2023-03-05T07:26:23.486Z,15.78
2023-03-05T07:27:23.485Z,15.78
2023-03-05T07:28:23.473Z,15.80
2023-03-05T07:29:23.444Z,15.78
2023-03-05T07:30:23.434Z,15.78
2023-03-05T07:31:23.588Z,15.78
2023-03-05T07:32:23.538Z,15.78
2023-03-05T07:33:23.397Z,15.78
2023-03-05T07:34:25.007Z,15.78
2023-03-05T07:35:23.384Z,15.76
2023-03-05T07:36:23.375Z,15.75
2023-03-05T07:37:23.382Z,15.76
2023-03-05T07:38:23.350Z,15.78
2023-03-05T07:39:23.335Z,15.76
2023-03-05T07:40:23.346Z,15.76
2023-03-05T07:41:23.403Z,15.78
2023-03-05T07:42:23.371Z,15.78
2023-03-05T07:43:23.325Z,15.78
2023-03-05T07:44:23.285Z,15.80
2023-03-05T07:45:23.295Z,15.78
2023-03-05T07:46:23.335Z,15.76
2023-03-05T07:47:23.254Z,15.78
2023-03-05T07:48:23.242Z,15.78
2023-03-05T07:49:23.229Z,15.78
2023-03-05T07:50:23.229Z,15.76
2023-03-05T07:51:23.268Z,15.78
2023-03-05T07:52:23.196Z,15.76
2023-03-05T07:53:23.200Z,15.78
2023-03-05T07:54:23.174Z,15.76
2023-03-05T07:55:23.186Z,15.76
2023-03-05T07:56:23.181Z,15.78
2023-03-05T07:57:23.150Z,15.78
2023-03-05T07:58:23.131Z,15.76
2023-03-05T07:59:23.145Z,15.78
2023-03-05T08:00:23.113Z,15.78
2023-03-05T08:01:23.117Z,15.78
2023-03-05T08:02:23.231Z,15.78
2023-03-05T08:03:23.118Z,15.78
2023-03-05T08:04:23.133Z,15.78
2023-03-05T08:05:23.058Z,15.78
2023-03-05T08:06:23.046Z,15.78
2023-03-05T08:07:23.057Z,15.78
2023-03-05T08:08:23.025Z,15.78
2023-03-05T08:09:23.022Z,15.76
2023-03-05T08:10:23.006Z,15.78
2023-03-05T08:11:23.024Z,15.78
2023-03-05T08:12:22.985Z,15.80
2023-03-05T08:13:22.974Z,15.80
2023-03-05T08:14:22.961Z,15.78
2023-03-05T08:15:22.986Z,15.78
2023-03-05T08:16:22.987Z,15.78
2023-03-05T08:17:22.953Z,15.78
2023-03-05T08:18:22.969Z,15.78
2023-03-05T08:19:22.907Z,15.78
2023-03-05T08:20:22.894Z,15.80
2023-03-05T08:21:22.885Z,15.78
2023-03-05T08:22:22.876Z,15.78
2023-03-05T08:23:22.864Z,15.76
2023-03-05T08:24:22.901Z,15.78
2023-03-05T08:25:22.841Z,15.78
2023-03-05T08:26:22.846Z,15.76
2023-03-05T08:27:22.820Z,15.76
2023-03-05T08:28:22.819Z,15.76
2023-03-05T08:29:22.798Z,15.78
2023-03-05T08:30:22.811Z,15.76
2023-03-05T08:31:22.826Z,15.78
2023-03-05T08:32:22.863Z,15.78
2023-03-05T08:33:22.842Z,15.78
2023-03-05T08:34:22.768Z,15.78
2023-03-05T08:35:22.902Z,15.78
2023-03-05T08:36:22.724Z,15.76
2023-03-05T08:37:22.723Z,15.78
2023-03-05T08:38:22.723Z,15.78
2023-03-05T08:39:22.690Z,15.78
2023-03-05T08:40:22.710Z,15.80
2023-03-05T08:41:22.667Z,15.80
2023-03-05T08:42:22.659Z,15.78
2023-03-05T08:43:22.646Z,15.78
2023-03-05T08:44:22.638Z,15.78
2023-03-05T08:45:22.625Z,15.78
2023-03-05T08:46:22.692Z,15.78
2023-03-05T08:47:22.627Z,15.76
2023-03-05T08:48:22.594Z,15.78
2023-03-05T08:49:22.608Z,15.78
2023-03-05T08:50:22.606Z,15.78
2023-03-05T08:51:22.572Z,15.76
2023-03-05T08:52:22.553Z,15.76
2023-03-05T08:53:22.545Z,15.76
2023-03-05T08:54:22.530Z,15.78
2023-03-05T08:55:22.520Z,15.78
2023-03-05T08:56:22.529Z,15.78
2023-03-05T08:57:22.520Z,15.76
2023-03-05T08:58:22.486Z,15.76
2023-03-05T08:59:22.482Z,15.78
2023-03-05T09:00:22.464Z,15.78
2023-03-05T09:01:22.586Z,15.78
2023-03-05T09:02:22.468Z,15.80
2023-03-05T09:03:22.456Z,15.76
2023-03-05T09:04:22.422Z,15.78
2023-03-05T09:05:22.413Z,15.78
2023-03-05T09:06:22.401Z,15.76
2023-03-05T09:07:22.394Z,15.76
2023-03-05T09:08:22.414Z,15.78
2023-03-05T09:09:22.368Z,15.76
2023-03-05T09:10:22.375Z,15.78
2023-03-05T09:11:22.354Z,15.76
2023-03-05T09:12:22.342Z,15.78
2023-03-05T09:13:22.330Z,15.76
2023-03-05T09:14:22.342Z,15.76
2023-03-05T09:15:22.304Z,15.78
2023-03-05T09:16:22.319Z,15.76
2023-03-05T09:17:22.284Z,15.76
2023-03-05T09:18:22.271Z,15.78
2023-03-05T09:19:22.301Z,15.78
2023-03-05T09:20:22.337Z,15.78
2023-03-05T09:21:22.247Z,15.78
2023-03-05T09:22:22.227Z,15.78
2023-03-05T09:23:22.228Z,15.78
2023-03-05T09:24:22.231Z,15.78
2023-03-05T09:25:22.198Z,15.78
2023-03-05T09:26:22.184Z,15.76
2023-03-05T09:27:22.178Z,15.76
2023-03-05T09:28:22.170Z,15.78
2023-03-05T09:29:22.192Z,15.76
2023-03-05T09:30:22.204Z,15.76
2023-03-05T09:31:22.227Z,15.76
2023-03-05T09:32:22.132Z,15.78
2023-03-05T09:33:22.109Z,15.76
2023-03-05T09:34:22.097Z,15.78
2023-03-05T09:35:22.250Z,15.76
2023-03-05T09:36:22.085Z,15.76
2023-03-05T09:37:22.070Z,15.76
2023-03-05T09:38:22.055Z,15.76
2023-03-05T09:39:22.049Z,15.76
2023-03-05T09:40:22.122Z,15.75
2023-03-05T09:41:22.047Z,15.75
2023-03-05T09:42:22.032Z,15.76
2023-03-05T09:43:22.003Z,15.76
2023-03-05T09:44:21.996Z,15.75
2023-03-05T09:45:21.979Z,15.75
2023-03-05T09:46:21.975Z,15.78
2023-03-05T09:47:21.960Z,15.76
2023-03-05T09:48:21.967Z,15.76
2023-03-05T09:49:21.943Z,15.76
2023-03-05T09:50:21.956Z,15.75
2023-03-05T09:51:21.940Z,15.76
2023-03-05T09:52:21.929Z,15.75
2023-03-05T09:53:21.937Z,15.76
2023-03-05T09:54:21.885Z,15.76
2023-03-05T09:55:21.870Z,15.76
2023-03-05T09:56:21.863Z,15.76
2023-03-05T09:57:21.852Z,15.78
2023-03-05T09:58:21.841Z,15.76
2023-03-05T09:59:21.859Z,15.78
2023-03-05T10:00:21.822Z,15.76
2023-03-05T10:01:21.809Z,15.78
2023-03-05T10:02:21.800Z,15.76
2023-03-05T10:03:21.853Z,15.76
2023-03-05T10:04:21.876Z,15.75
2023-03-05T10:05:21.789Z,15.76
2023-03-05T10:06:21.758Z,15.78
2023-03-05T10:07:21.767Z,15.78
2023-03-05T10:08:21.756Z,15.78
2023-03-05T10:09:21.736Z,15.78
2023-03-05T10:10:21.713Z,15.76
2023-03-05T10:11:21.721Z,15.76
2023-03-05T10:12:21.692Z,15.76
2023-03-05T10:13:21.677Z,15.76
2023-03-05T10:14:21.672Z,15.78
2023-03-05T10:15:21.677Z,15.76
2023-03-05T10:16:21.688Z,15.78
2023-03-05T10:17:21.635Z,15.78
2023-03-05T10:18:21.629Z,15.78
2023-03-05T10:19:21.633Z,15.76
2023-03-05T10:20:21.612Z,15.76
2023-03-05T10:21:21.593Z,15.76
2023-03-05T10:22:21.591Z,15.78
2023-03-05T10:23:21.597Z,15.76
2023-03-05T10:24:21.586Z,15.76
2023-03-05T10:25:21.549Z,15.78
2023-03-05T10:26:21.539Z,15.76
2023-03-05T10:27:21.627Z,15.78
2023-03-05T10:28:21.520Z,15.78
2023-03-05T10:29:21.506Z,15.78
2023-03-05T10:30:21.521Z,15.78
2023-03-05T10:31:21.532Z,15.76
2023-03-05T10:32:21.690Z,15.76
2023-03-05T10:33:21.463Z,15.76
2023-03-05T10:34:21.454Z,15.78
2023-03-05T10:35:21.499Z,15.78
2023-03-05T10:36:21.449Z,15.78
2023-03-05T10:37:21.437Z,15.78
2023-03-05T10:38:21.407Z,15.76
2023-03-05T10:39:21.429Z,15.78
2023-03-05T10:40:21.385Z,15.78
2023-03-05T10:41:21.376Z,15.78
2023-03-05T10:42:21.387Z,15.76
2023-03-05T10:43:21.375Z,15.78
2023-03-05T10:44:21.342Z,15.76
2023-03-05T10:45:21.333Z,15.78
2023-03-05T10:46:21.341Z,15.76
2023-03-05T10:47:21.312Z,15.78
2023-03-05T10:48:21.299Z,15.76
2023-03-05T10:49:21.295Z,15.76
2023-03-05T10:50:21.276Z,15.78
2023-03-05T10:51:21.290Z,15.76
2023-03-05T10:52:21.258Z,15.78
2023-03-05T10:53:21.244Z,15.78
2023-03-05T10:54:21.240Z,15.76
2023-03-05T10:55:21.265Z,15.78
2023-03-05T10:56:21.244Z,15.76
2023-03-05T10:57:21.211Z,15.78
2023-03-05T10:58:23.684Z,15.78
2023-03-05T10:59:21.195Z,15.76
2023-03-05T11:00:21.174Z,15.78
2023-03-05T11:01:21.213Z,15.76
2023-03-05T11:02:21.225Z,15.76
2023-03-05T11:03:21.135Z,15.76
2023-03-05T11:04:21.126Z,15.76
2023-03-05T11:05:21.112Z,15.78
2023-03-05T11:06:21.105Z,15.76
2023-03-05T11:07:21.120Z,15.76
2023-03-05T11:08:21.081Z,15.78
2023-03-05T11:09:21.074Z,15.76
2023-03-05T11:10:21.058Z,15.76
2023-03-05T11:11:21.106Z,15.78
2023-03-05T11:12:21.066Z,15.78
2023-03-05T11:13:21.026Z,15.78
2023-03-05T11:14:21.017Z,15.76
2023-03-05T11:15:21.001Z,15.76
2023-03-05T11:16:21.266Z,15.76
2023-03-05T11:17:21.002Z,15.76
2023-03-05T11:18:20.971Z,15.76
2023-03-05T11:19:20.979Z,15.78
2023-03-05T11:20:20.949Z,15.78
2023-03-05T11:21:20.938Z,15.78
2023-03-05T11:22:20.925Z,15.76
2023-03-05T11:23:20.936Z,15.80
2023-03-05T11:24:20.932Z,15.78
2023-03-05T11:25:20.893Z,15.76
2023-03-05T11:26:20.884Z,15.76
2023-03-05T11:27:20.895Z,15.76
2023-03-05T11:28:31.967Z,15.76
2023-03-05T11:29:21.858Z,15.78
2023-03-05T11:30:20.869Z,15.78
2023-03-05T11:31:20.900Z,15.78
2023-03-05T11:32:20.936Z,15.78
2023-03-05T11:33:20.823Z,15.78
2023-03-05T11:34:20.831Z,15.76
2023-03-05T11:35:20.821Z,15.78
2023-03-05T11:36:20.786Z,15.76
2023-03-05T11:37:20.766Z,15.76
2023-03-05T11:38:20.773Z,15.76
2023-03-05T11:39:20.763Z,15.76
2023-03-05T11:40:20.733Z,15.78
2023-03-05T11:41:20.722Z,15.76
2023-03-05T11:42:20.712Z,15.78
2023-03-05T11:43:20.729Z,15.76
2023-03-05T11:44:20.710Z,15.78
2023-03-05T11:45:20.679Z,15.76
2023-03-05T11:46:20.766Z,15.78
2023-03-05T11:47:20.661Z,15.78
2023-03-05T11:48:20.650Z,15.78
2023-03-05T11:49:20.636Z,15.76
2023-03-05T11:50:20.645Z,15.76
2023-03-05T11:51:20.616Z,15.78
2023-03-05T11:52:20.604Z,15.78
2023-03-05T11:53:20.595Z,15.78
2023-03-05T11:54:20.583Z,15.76
2023-03-05T11:55:20.610Z,15.78
2023-03-05T11:56:20.563Z,15.78
2023-03-05T11:57:20.553Z,15.78
2023-03-05T11:58:20.542Z,15.78
2023-03-05T11:59:20.561Z,15.76
2023-03-05T12:00:20.550Z,15.78
2023-03-05T12:01:20.510Z,15.80
2023-03-05T12:02:20.527Z,15.78
2023-03-05T12:03:20.516Z,15.76
2023-03-05T12:04:20.478Z,15.76
2023-03-05T12:05:20.468Z,15.76
2023-03-05T12:06:20.478Z,15.76
2023-03-05T12:07:20.445Z,15.78
2023-03-05T12:08:20.436Z,15.80
2023-03-05T12:09:20.438Z,15.78
2023-03-05T12:10:20.441Z,15.80
2023-03-05T12:11:20.500Z,15.78
2023-03-05T12:12:20.406Z,15.78
2023-03-05T12:13:20.409Z,15.80
2023-03-05T12:14:20.378Z,15.78
2023-03-05T12:15:20.394Z,15.78
2023-03-05T12:16:20.437Z,15.78
2023-03-05T12:17:20.339Z,15.80
2023-03-05T12:18:20.354Z,15.80
2023-03-05T12:19:20.341Z,15.76
2023-03-05T12:20:20.353Z,15.78
2023-03-05T12:21:20.297Z,15.80
2023-03-05T12:22:20.286Z,15.80
2023-03-05T12:23:20.308Z,15.78
2023-03-05T12:24:20.289Z,15.78
2023-03-05T12:25:20.255Z,15.78
2023-03-05T12:26:20.243Z,15.78
2023-03-05T12:27:20.234Z,15.80
2023-03-05T12:28:20.221Z,15.78
2023-03-05T12:29:20.243Z,15.80
2023-03-05T12:30:20.199Z,15.78
2023-03-05T12:31:20.237Z,15.76
2023-03-05T12:32:20.205Z,15.80
2023-03-05T12:33:20.170Z,15.78
2023-03-05T12:34:20.157Z,15.78
2023-03-05T12:35:20.184Z,15.78
2023-03-05T12:36:20.134Z,15.80
2023-03-05T12:37:20.130Z,15.80
2023-03-05T12:38:26.671Z,15.78
2023-03-05T12:39:21.103Z,15.80
2023-03-05T12:40:20.117Z,15.80
2023-03-05T12:41:20.085Z,15.80
2023-03-05T12:42:20.070Z,15.82
2023-03-05T12:43:20.062Z,15.82
2023-03-05T12:44:20.050Z,15.80
2023-03-05T12:45:20.059Z,15.80
2023-03-05T12:46:20.096Z,15.83
2023-03-05T12:47:20.049Z,15.80
2023-03-05T12:48:20.032Z,15.80
2023-03-05T12:49:19.995Z,15.80
2023-03-05T12:50:20.005Z,15.80
2023-03-05T12:51:20.002Z,15.82
2023-03-05T12:52:19.970Z,15.80